Time;durP1;ratioP1;P1;durP2;ratioP2;P2;SDS_P1;SDS_P2;PMS_P1;PMS_P2;Temp;Humidity;BMP_temperature;BMP_pressure;BME280_temperature;BME280_humidity;BME280_pressure;Samples;Min_cycle;Max_cycle;Signal;HPM_P1;HPM_P2
2021/01/06 00:00:47;;;;;;;83.13;23.85;;;-0.70;99.90;;;;;;2082065;28;20188;-66
2021/01/06 00:01:47;;;;;;;75.50;22.52;;;-0.60;99.90;;;;;;2082036;28;20578;-66
2021/01/06 00:02:48;;;;;;;61.17;18.73;;;-0.60;99.90;;;;;;2082778;28;20180;-68
2021/01/06 00:03:50;;;;;;;49.03;20.00;;;-0.70;99.90;;;;;;2082779;28;20711;-66
2021/01/06 00:04:51;;;;;;;83.22;25.95;;;-0.70;99.90;;;;;;2082159;28;20290;-67
2021/01/06 00:05:58;;;;;;;138.43;29.07;;;-0.70;99.90;;;;;;2082201;28;20242;-66
2021/01/06 00:06:59;;;;;;;79.97;24.73;;;-0.60;99.90;;;;;;2082653;28;20168;-66
2021/01/06 00:07:59;;;;;;;54.30;19.07;;;-0.60;99.90;;;;;;2082900;28;20189;-66
2021/01/06 00:09:00;;;;;;;59.67;19.17;;;-0.60;99.90;;;;;;2082116;28;20192;-66
2021/01/06 00:10:02;;;;;;;50.13;18.47;;;-0.70;99.90;;;;;;2082051;28;20208;-65
2021/01/06 00:11:04;;;;;;;56.03;17.73;;;-0.80;99.90;;;;;;2082298;28;20189;-66
2021/01/06 00:12:08;;;;;;;51.17;16.42;;;-0.80;99.90;;;;;;2090304;28;20203;-66
2021/01/06 00:13:11;;;;;;;84.78;20.40;;;-0.80;99.90;;;;;;2073663;28;20188;-66
2021/01/06 00:14:15;;;;;;;73.68;19.13;;;-0.80;99.90;;;;;;2074358;28;20272;-66
2021/01/06 00:15:22;;;;;;;141.77;27.02;;;-0.80;99.90;;;;;;2082677;28;20186;-66
2021/01/06 00:16:22;;;;;;;102.22;22.42;;;-0.80;99.90;;;;;;2082572;28;20209;-66
2021/01/06 00:17:23;;;;;;;96.93;23.07;;;-0.90;99.90;;;;;;2082715;28;20173;-67
2021/01/06 00:18:26;;;;;;;161.87;30.73;;;-0.90;99.90;;;;;;2082710;28;20187;-65
2021/01/06 00:19:27;;;;;;;165.25;30.70;;;-0.80;99.90;;;;;;2081926;28;20207;-66
2021/01/06 00:20:30;;;;;;;101.15;21.38;;;-0.80;99.90;;;;;;2082003;28;20211;-66
2021/01/06 00:21:30;;;;;;;88.47;20.70;;;-0.80;99.90;;;;;;2089744;28;20168;-66
2021/01/06 00:22:31;;;;;;;127.07;27.63;;;-0.80;99.90;;;;;;2090327;28;20183;-67
2021/01/06 00:23:32;;;;;;;68.37;21.33;;;-0.80;99.90;;;;;;2082821;28;20177;-66
2021/01/06 00:24:32;;;;;;;119.67;29.37;;;-0.70;99.90;;;;;;2082643;28;20173;-66
2021/01/06 00:25:36;;;;;;;97.30;25.50;;;-0.70;99.90;;;;;;2081800;28;20268;-67
2021/01/06 00:26:37;;;;;;;145.00;30.40;;;-0.70;99.90;;;;;;2081985;28;20185;-66
2021/01/06 00:27:38;;;;;;;138.95;30.70;;;-0.70;99.90;;;;;;2081923;28;20185;-66
2021/01/06 00:28:39;;;;;;;127.23;27.83;;;-0.60;99.90;;;;;;2082277;28;20720;-67
2021/01/06 00:29:39;;;;;;;161.33;30.00;;;-0.60;99.90;;;;;;2082593;28;20264;-66
2021/01/06 00:30:55;;;;;;;126.90;28.17;;;-0.60;99.90;;;;;;2082660;28;20177;-66
2021/01/06 00:31:55;;;;;;;124.03;26.45;;;-0.60;99.90;;;;;;2082613;28;20192;-65
2021/01/06 00:32:56;;;;;;;179.93;31.33;;;-0.60;99.90;;;;;;2082433;28;20561;-66
2021/01/06 00:33:57;;;;;;;132.90;24.90;;;-0.60;99.90;;;;;;2082483;28;20257;-66
2021/01/06 00:34:57;;;;;;;224.90;34.27;;;-0.60;99.90;;;;;;2082734;28;20662;-66
2021/01/06 00:36:17;;;;;;;135.63;27.83;;;-0.60;99.90;;;;;;2082406;28;20230;-66
2021/01/06 00:37:17;;;;;;;128.30;27.63;;;-0.60;99.90;;;;;;2081977;28;20198;-66
2021/01/06 00:38:18;;;;;;;156.67;32.20;;;-0.60;99.90;;;;;;2081851;28;20169;-66
2021/01/06 00:39:19;;;;;;;114.10;27.43;;;-0.60;99.90;;;;;;2081903;28;20619;-67
2021/01/06 00:40:19;;;;;;;92.23;23.13;;;-0.50;99.90;;;;;;2081775;28;20178;-67
2021/01/06 00:41:29;;;;;;;69.30;21.10;;;-0.60;99.90;;;;;;2082363;28;20181;-66
2021/01/06 00:42:30;;;;;;;92.20;23.00;;;-0.60;99.90;;;;;;2082802;28;20556;-65
2021/01/06 00:43:31;;;;;;;269.37;39.07;;;-0.60;99.90;;;;;;2081876;28;20187;-67
2021/01/06 00:44:32;;;;;;;81.65;22.70;;;-0.60;99.90;;;;;;2082039;28;20215;-66
2021/01/06 00:45:34;;;;;;;196.60;33.07;;;-0.50;99.90;;;;;;2090212;28;20176;-67
2021/01/06 00:46:36;;;;;;;142.60;26.60;;;-0.50;99.90;;;;;;2081874;28;20184;-67
2021/01/06 00:47:37;;;;;;;230.52;33.58;;;-0.50;99.90;;;;;;2073787;28;20215;-67
2021/01/06 00:48:37;;;;;;;310.80;40.27;;;-0.60;99.90;;;;;;2081736;28;20491;-66
2021/01/06 00:49:38;;;;;;;148.20;28.00;;;-0.50;99.90;;;;;;2082445;28;20201;-66
2021/01/06 00:50:42;;;;;;;264.90;38.83;;;-0.50;99.90;;;;;;2082278;28;20647;-66
2021/01/06 00:51:47;;;;;;;143.63;28.75;;;-0.50;99.90;;;;;;2082303;28;20211;-67
2021/01/06 00:52:48;;;;;;;103.72;23.50;;;-0.50;99.90;;;;;;2081919;28;20262;-66
2021/01/06 00:53:48;;;;;;;111.90;21.47;;;-0.50;99.90;;;;;;2081795;28;20268;-66
2021/01/06 00:54:49;;;;;;;169.93;26.47;;;-0.50;99.90;;;;;;2082364;28;20209;-66
2021/01/06 00:55:51;;;;;;;224.37;35.60;;;-0.60;99.90;;;;;;2082025;28;20224;-66
2021/01/06 00:56:52;;;;;;;115.15;22.10;;;-0.60;99.90;;;;;;2081659;28;20217;-65
2021/01/06 00:57:54;;;;;;;105.97;21.00;;;-0.60;99.90;;;;;;2082608;28;20213;-66
2021/01/06 00:58:55;;;;;;;214.68;32.70;;;-0.60;99.90;;;;;;2081866;28;20200;-66
2021/01/06 00:59:56;;;;;;;245.75;37.00;;;-0.50;99.90;;;;;;2079127;28;20206;-66
2021/01/06 01:00:57;;;;;;;191.10;32.53;;;-0.50;99.90;;;;;;2081858;28;20177;-65
2021/01/06 01:01:58;;;;;;;198.32;32.75;;;-0.50;99.90;;;;;;2082514;28;20217;-66
2021/01/06 01:02:59;;;;;;;170.53;27.70;;;-0.50;99.90;;;;;;2082375;28;20191;-66
2021/01/06 01:03:59;;;;;;;113.13;26.25;;;-0.50;99.90;;;;;;2082299;28;20184;-66
2021/01/06 01:05:01;;;;;;;123.33;23.70;;;-0.50;99.90;;;;;;2081515;28;20619;-65
2021/01/06 01:06:01;;;;;;;173.80;28.50;;;-0.50;99.90;;;;;;2073412;28;20187;-66
2021/01/06 01:07:02;;;;;;;192.03;32.70;;;-0.50;99.90;;;;;;2081734;28;20280;-66
2021/01/06 01:08:06;;;;;;;197.70;29.37;;;-0.50;99.90;;;;;;2082143;28;20279;-66
2021/01/06 01:09:07;;;;;;;158.45;23.60;;;-0.50;99.90;;;;;;2081754;28;20235;-65
2021/01/06 01:10:08;;;;;;;157.10;26.83;;;-0.50;99.90;;;;;;2081536;28;20177;-66
2021/01/06 01:11:09;;;;;;;400.25;47.60;;;-0.50;99.90;;;;;;2082094;28;20271;-66
2021/01/06 01:12:11;;;;;;;189.97;29.23;;;-0.50;99.90;;;;;;2082254;28;20195;-66
2021/01/06 01:13:24;;;;;;;137.32;25.92;;;-0.50;99.90;;;;;;2082244;28;20192;-66
2021/01/06 01:14:25;;;;;;;88.78;21.77;;;-0.50;99.90;;;;;;2082405;28;20165;-66
2021/01/06 01:15:29;;;;;;;405.80;40.20;;;-0.50;99.90;;;;;;2082251;28;20543;-65
2021/01/06 01:16:30;;;;;;;523.72;51.00;;;-0.60;99.90;;;;;;2082198;28;20659;-66
2021/01/06 01:17:30;;;;;;;320.67;33.95;;;-0.60;99.90;;;;;;2083211;28;20177;-65
2021/01/06 01:18:31;;;;;;;213.57;25.97;;;-0.70;99.90;;;;;;2091828;28;20176;-65
2021/01/06 01:19:32;;;;;;;183.40;26.67;;;-0.70;99.90;;;;;;2091919;28;20192;-65
2021/01/06 01:20:33;;;;;;;237.37;36.77;;;-0.70;99.90;;;;;;2091694;28;20196;-65
2021/01/06 01:21:34;;;;;;;271.38;38.17;;;-0.60;99.90;;;;;;2091100;28;20184;-65
2021/01/06 01:22:34;;;;;;;389.83;49.20;;;-0.60;99.90;;;;;;2087742;28;20247;-65
2021/01/06 01:23:35;;;;;;;274.30;36.67;;;-0.60;99.90;;;;;;2082777;28;20204;-65
2021/01/06 01:24:36;;;;;;;411.53;43.37;;;-0.50;99.90;;;;;;2081898;28;20263;-65
2021/01/06 01:25:36;;;;;;;175.03;30.53;;;-0.50;99.90;;;;;;2081862;28;20187;-65
2021/01/06 01:26:39;;;;;;;304.17;38.73;;;-0.50;99.90;;;;;;2082201;28;20188;-65
2021/01/06 01:27:42;;;;;;;86.07;23.67;;;-0.50;99.90;;;;;;2082267;28;20173;-67
2021/01/06 01:28:43;;;;;;;110.05;24.88;;;-0.50;99.90;;;;;;2083498;28;20191;-65
2021/01/06 01:29:43;;;;;;;123.47;27.53;;;-0.50;99.90;;;;;;2090933;28;20189;-66
2021/01/06 01:30:44;;;;;;;155.67;30.37;;;-0.50;99.90;;;;;;2091303;28;20187;-65
2021/01/06 01:31:46;;;;;;;328.70;39.40;;;-0.50;99.90;;;;;;2091168;28;20169;-65
2021/01/06 01:32:48;;;;;;;370.67;44.22;;;-0.50;99.90;;;;;;2085641;28;20802;-66
2021/01/06 01:33:49;;;;;;;435.20;49.03;;;-0.50;99.90;;;;;;2081596;28;20177;-67
2021/01/06 01:34:49;;;;;;;223.40;32.37;;;-0.50;99.90;;;;;;2081589;28;20173;-66
2021/01/06 01:35:51;;;;;;;151.97;27.10;;;-0.50;99.90;;;;;;2082189;28;20173;-67
2021/01/06 01:36:51;;;;;;;259.65;37.00;;;-0.50;99.90;;;;;;2082084;28;20208;-67
2021/01/06 01:37:53;;;;;;;288.07;40.30;;;-0.50;99.90;;;;;;2081566;28;20854;-66
2021/01/06 01:38:54;;;;;;;407.60;45.92;;;-0.40;99.90;;;;;;2065305;28;20185;-66
2021/01/06 01:39:55;;;;;;;104.53;22.30;;;-0.40;99.90;;;;;;2073408;28;20204;-66
2021/01/06 01:41:12;;;;;;;216.33;26.17;;;-0.40;99.90;;;;;;2081882;28;20185;-66
2021/01/06 01:42:13;;;;;;;411.10;43.53;;;-0.50;99.90;;;;;;2082272;28;20179;-66
2021/01/06 01:43:13;;;;;;;337.13;37.73;;;-0.60;99.90;;;;;;2082183;28;20180;-67
2021/01/06 01:44:14;;;;;;;384.30;40.67;;;-0.60;99.90;;;;;;2082178;28;20666;-66
2021/01/06 01:45:16;;;;;;;338.73;33.33;;;-0.60;99.90;;;;;;2081985;28;20258;-66
2021/01/06 01:46:20;;;;;;;204.20;25.92;;;-0.60;99.90;;;;;;2082219;28;20330;-66
2021/01/06 01:47:25;;;;;;;394.92;35.75;;;-0.70;99.90;;;;;;2081939;28;20682;-65
2021/01/06 01:48:33;;;;;;;425.17;45.92;;;-0.70;99.90;;;;;;2089487;28;20190;-66
2021/01/06 01:49:47;;;;;;;259.27;28.58;;;-0.70;99.90;;;;;;2088618;28;20224;-66
2021/01/06 01:50:48;;;;;;;423.90;41.70;;;-0.70;99.90;;;;;;2089818;28;20575;-65
2021/01/06 01:52:01;;;;;;;247.43;35.05;;;-0.60;99.90;;;;;;2089169;28;20183;-67
2021/01/06 01:53:08;;;;;;;203.18;25.38;;;-0.50;99.90;;;;;;2089722;28;20176;-66
2021/01/06 01:54:18;;;;;;;247.63;32.40;;;-0.50;99.90;;;;;;2088976;28;20254;-65
2021/01/06 01:55:21;;;;;;;263.00;29.15;;;-0.50;99.90;;;;;;2081347;28;20253;-66
2021/01/06 01:56:30;;;;;;;231.18;28.58;;;-0.50;99.90;;;;;;2081386;28;20593;-67
2021/01/06 01:57:39;;;;;;;393.40;40.67;;;-0.50;99.90;;;;;;2074114;28;20211;-66
2021/01/06 01:58:43;;;;;;;213.57;28.40;;;-0.50;99.90;;;;;;2073093;28;20177;-66
2021/01/06 02:00:21;;;;;;;392.00;45.28;;;-0.50;99.90;;;;;;2065861;28;20260;-67
2021/01/06 02:01:23;;;;;;;270.92;37.65;;;-0.50;99.90;;;;;;2069318;28;20229;-66
2021/01/06 02:02:42;;;;;;;246.18;36.30;;;-0.40;99.90;;;;;;2064603;28;20306;-66
2021/01/06 02:04:11;;;;;;;427.50;40.38;;;-0.30;99.90;;;;;;2065667;28;20197;-66
2021/01/06 02:05:18;;;;;;;360.02;39.67;;;-0.30;99.90;;;;;;2077062;28;20180;-66
2021/01/06 02:06:31;;;;;;;204.95;30.48;;;-0.30;99.90;;;;;;2073854;28;20214;-66
2021/01/06 02:07:39;;;;;;;247.48;34.80;;;-0.30;99.90;;;;;;2081365;28;20193;-66
2021/01/06 02:09:48;;;;;;;181.02;28.70;;;-0.30;99.90;;;;;;2089610;28;20220;-66
2021/01/06 02:11:37;;;;;;;132.10;21.73;;;-0.30;99.90;;;;;;2054436;28;20198;-67
2021/01/06 02:12:44;;;;;;;127.30;21.48;;;-0.30;99.90;;;;;;2039930;28;20233;-67
2021/01/06 02:14:02;;;;;;;155.60;27.50;;;-0.30;99.90;;;;;;2081939;28;20298;-66
2021/01/06 02:15:16;;;;;;;187.02;28.52;;;-0.30;99.90;;;;;;2087264;28;20625;-66
2021/01/06 02:16:31;;;;;;;190.90;31.30;;;-0.30;99.90;;;;;;2081761;28;20180;-66
2021/01/06 02:17:32;;;;;;;80.15;20.33;;;-0.20;99.90;;;;;;2081093;28;20189;-66
2021/01/06 02:18:33;;;;;;;150.80;28.57;;;-0.20;99.90;;;;;;2080632;28;20188;-66
2021/01/06 02:19:44;;;;;;;167.45;30.23;;;-0.30;99.90;;;;;;2081695;28;20275;-66
2021/01/06 02:21:15;;;;;;;97.05;20.77;;;-0.20;99.90;;;;;;2080717;28;20543;-65
2021/01/06 02:22:19;;;;;;;298.60;37.40;;;-0.30;99.90;;;;;;2076778;28;20180;-67
2021/01/06 02:23:20;;;;;;;246.45;34.65;;;-0.30;99.90;;;;;;2089219;28;20603;-67
2021/01/06 02:24:21;;;;;;;209.57;34.17;;;-0.20;99.90;;;;;;2089106;28;20187;-66
2021/01/06 02:25:25;;;;;;;168.38;30.48;;;-0.20;99.90;;;;;;2089189;28;20568;-66
2021/01/06 02:26:28;;;;;;;53.85;19.00;;;-0.10;99.90;;;;;;2088692;28;20233;-65
2021/01/06 02:27:29;;;;;;;61.00;20.27;;;-0.20;99.90;;;;;;2081274;28;20733;-66
2021/01/06 02:28:30;;;;;;;80.93;20.90;;;-0.20;99.90;;;;;;2080948;28;20258;-66
2021/01/06 02:29:32;;;;;;;91.33;23.33;;;-0.20;99.90;;;;;;2080848;28;20200;-66
2021/01/06 02:30:33;;;;;;;179.20;29.30;;;-0.20;99.90;;;;;;2080896;28;20176;-65
2021/01/06 02:31:34;;;;;;;156.38;29.30;;;-0.20;99.90;;;;;;2080506;28;20658;-66
2021/01/06 02:32:35;;;;;;;124.07;27.23;;;-0.20;99.90;;;;;;2081484;28;20186;-65
2021/01/06 02:33:38;;;;;;;96.00;22.30;;;-0.20;99.90;;;;;;2081403;28;20257;-67
2021/01/06 02:34:40;;;;;;;48.10;16.60;;;-0.20;99.90;;;;;;2080954;28;20571;-67
2021/01/06 02:35:41;;;;;;;88.97;23.02;;;-0.20;99.90;;;;;;2081048;28;20238;-66
2021/01/06 02:36:42;;;;;;;65.20;18.70;;;-0.20;99.90;;;;;;2080903;28;20635;-66
2021/01/06 02:37:43;;;;;;;88.57;22.70;;;-0.20;99.90;;;;;;2080942;28;20702;-66
2021/01/06 02:38:44;;;;;;;86.77;23.03;;;-0.20;99.90;;;;;;2080988;28;20238;-67
2021/01/06 02:39:45;;;;;;;81.05;20.77;;;-0.20;99.90;;;;;;2072780;28;20454;-67
2021/01/06 02:40:46;;;;;;;105.63;24.40;;;-0.20;99.90;;;;;;2080933;28;20184;-66
2021/01/06 02:41:48;;;;;;;53.22;18.88;;;-0.20;99.90;;;;;;2080640;28;20173;-66
2021/01/06 02:42:49;;;;;;;99.28;20.95;;;-0.20;99.90;;;;;;2081157;28;20759;-67
2021/01/06 02:43:50;;;;;;;101.10;23.90;;;-0.20;99.90;;;;;;2089379;28;20174;-66
2021/01/06 02:44:51;;;;;;;71.00;19.55;;;-0.30;99.90;;;;;;2080927;28;20263;-67
2021/01/06 02:45:53;;;;;;;49.73;17.07;;;-0.30;99.90;;;;;;2089032;28;20647;-66
2021/01/06 02:46:54;;;;;;;42.63;16.23;;;-0.30;99.90;;;;;;2088972;28;20258;-66
2021/01/06 02:47:55;;;;;;;42.70;15.45;;;-0.40;99.90;;;;;;2072789;28;20178;-66
2021/01/06 02:48:56;;;;;;;56.23;17.07;;;-0.40;99.90;;;;;;2072706;28;20208;-66
2021/01/06 02:49:57;;;;;;;69.27;19.03;;;-0.40;99.90;;;;;;2080607;28;20193;-66
2021/01/06 02:51:07;;;;;;;62.67;19.70;;;-0.40;99.90;;;;;;2089071;28;20183;-65
2021/01/06 02:52:17;;;;;;;62.17;17.98;;;-0.30;99.90;;;;;;2080816;28;20555;-66
2021/01/06 02:53:25;;;;;;;52.65;18.42;;;-0.30;99.90;;;;;;2081791;28;20226;-66
2021/01/06 02:54:33;;;;;;;37.53;13.65;;;-0.30;99.90;;;;;;2077568;28;20639;-67
2021/01/06 02:55:37;;;;;;;39.80;14.10;;;-0.30;99.90;;;;;;2073702;28;20494;-66
2021/01/06 02:56:40;;;;;;;35.97;13.35;;;-0.30;99.90;;;;;;2073013;28;20835;-66
2021/01/06 02:57:42;;;;;;;40.75;15.02;;;-0.30;99.90;;;;;;2073081;28;20190;-66
2021/01/06 02:58:45;;;;;;;48.05;15.48;;;-0.20;99.90;;;;;;2080900;28;20208;-66
2021/01/06 02:59:48;;;;;;;51.90;16.73;;;-0.20;99.90;;;;;;2080710;28;20746;-66
2021/01/06 03:00:50;;;;;;;30.70;12.68;;;-0.20;99.90;;;;;;2080899;28;20192;-65
2021/01/06 03:01:53;;;;;;;34.53;14.05;;;-0.20;99.90;;;;;;2080801;28;20675;-67
2021/01/06 03:02:54;;;;;;;20.85;11.23;;;-0.20;99.90;;;;;;2081091;28;20192;-65
2021/01/06 03:03:56;;;;;;;37.17;14.02;;;-0.20;99.90;;;;;;2088752;28;20258;-66
2021/01/06 03:05:35;;;;;;;38.42;14.15;;;-0.20;99.90;;;;;;2081558;28;20536;-66
2021/01/06 03:06:56;;;;;;;38.15;13.55;;;-0.20;99.90;;;;;;2081268;28;20191;-66
2021/01/06 03:07:57;;;;;;;30.30;11.48;;;-0.20;99.90;;;;;;2081447;28;20268;-66
2021/01/06 03:08:58;;;;;;;61.67;17.00;;;-0.20;99.90;;;;;;2080510;28;20211;-65
2021/01/06 03:09:59;;;;;;;31.08;12.00;;;-0.20;99.90;;;;;;2080654;28;20553;-66
2021/01/06 03:11:01;;;;;;;37.35;14.65;;;-0.30;99.90;;;;;;2080454;28;20275;-65
2021/01/06 03:12:17;;;;;;;51.80;16.55;;;-0.20;99.90;;;;;;2080940;28;20248;-66
2021/01/06 03:13:17;;;;;;;47.97;15.90;;;-0.20;99.90;;;;;;2080847;28;20169;-65
2021/01/06 03:14:18;;;;;;;44.57;14.67;;;-0.20;99.90;;;;;;2080641;28;20891;-65
2021/01/06 03:15:23;;;;;;;39.70;14.40;;;-0.20;99.90;;;;;;2081138;28;20261;-66
2021/01/06 03:16:24;;;;;;;35.00;12.38;;;-0.30;99.90;;;;;;2081166;28;20196;-65
2021/01/06 03:17:26;;;;;;;38.10;12.90;;;-0.30;99.90;;;;;;2088814;28;20648;-66
2021/01/06 03:18:27;;;;;;;44.63;15.48;;;-0.30;99.90;;;;;;2080264;28;20271;-66
2021/01/06 03:19:31;;;;;;;50.80;15.67;;;-0.20;99.90;;;;;;2072323;28;20226;-66
2021/01/06 03:20:41;;;;;;;46.95;14.88;;;-0.20;99.90;;;;;;2080470;28;20977;-66
2021/01/06 03:21:44;;;;;;;39.13;13.55;;;-0.20;99.90;;;;;;2073441;28;20235;-66
2021/01/06 03:22:51;;;;;;;33.92;12.65;;;-0.20;99.90;;;;;;2072627;28;20177;-67
2021/01/06 03:23:54;;;;;;;34.28;14.10;;;-0.20;99.90;;;;;;2080562;28;20679;-67
2021/01/06 03:25:03;;;;;;;38.83;14.07;;;-0.20;99.90;;;;;;2080098;28;20721;-66
2021/01/06 03:26:12;;;;;;;34.10;13.68;;;-0.20;99.90;;;;;;2073452;28;20181;-67
2021/01/06 03:27:13;;;;;;;30.58;12.88;;;-0.20;99.90;;;;;;2081402;28;20188;-67
2021/01/06 03:28:16;;;;;;;28.73;11.30;;;-0.20;99.90;;;;;;2088622;28;20180;-66
2021/01/06 03:29:18;;;;;;;36.67;13.40;;;-0.20;99.90;;;;;;2072346;28;20558;-67
2021/01/06 03:30:28;;;;;;;36.38;13.68;;;-0.20;99.90;;;;;;2071687;28;20190;-66
2021/01/06 03:31:44;;;;;;;38.95;13.68;;;-0.20;99.90;;;;;;2081375;28;20164;-67
2021/01/06 03:32:54;;;;;;;26.60;11.65;;;-0.10;99.90;;;;;;2080361;28;20231;-67
2021/01/06 03:34:03;;;;;;;29.33;11.88;;;-0.20;99.90;;;;;;2073407;28;20703;-67
2021/01/06 03:35:29;;;;;;;29.65;11.65;;;-0.20;99.90;;;;;;2073533;28;20170;-66
2021/01/06 03:36:39;;;;;;;26.10;10.48;;;-0.10;99.90;;;;;;2075556;28;20200;-69
2021/01/06 03:37:50;;;;;;;21.63;9.68;;;-0.10;99.90;;;;;;2081607;28;20196;-67
2021/01/06 03:39:06;;;;;;;25.65;11.02;;;-0.10;99.90;;;;;;2087282;28;20558;-67
2021/01/06 03:40:16;;;;;;;27.50;10.43;;;-0.10;99.90;;;;;;2073894;28;20251;-66
2021/01/06 03:41:17;;;;;;;24.02;10.27;;;-0.10;99.90;;;;;;2073287;28;20157;-67
2021/01/06 03:42:19;;;;;;;34.30;12.90;;;-0.10;99.90;;;;;;2080275;28;20182;-67
2021/01/06 03:43:22;;;;;;;33.08;12.55;;;-0.10;99.90;;;;;;2080527;28;20176;-67
2021/01/06 03:44:24;;;;;;;27.65;10.95;;;-0.20;99.90;;;;;;2080668;28;20177;-68
2021/01/06 03:45:29;;;;;;;21.27;10.20;;;-0.10;99.90;;;;;;2088681;28;20574;-67
2021/01/06 03:46:39;;;;;;;32.03;12.23;;;-0.10;99.90;;;;;;2080268;28;20280;-67
2021/01/06 03:47:43;;;;;;;21.67;10.45;;;-0.10;99.90;;;;;;2073319;28;20170;-66
2021/01/06 03:48:49;;;;;;;21.75;10.35;;;-0.10;99.90;;;;;;2088643;28;20184;-67
2021/01/06 03:49:53;;;;;;;25.35;11.15;;;-0.10;99.90;;;;;;2087769;28;20195;-66
2021/01/06 03:51:02;;;;;;;24.23;10.38;;;-0.10;99.90;;;;;;2080769;28;20195;-66
2021/01/06 03:52:17;;;;;;;21.58;10.43;;;0.00;99.90;;;;;;2079994;28;20189;-66
2021/01/06 03:53:37;;;;;;;19.73;9.23;;;-0.10;99.90;;;;;;2080176;28;20192;-67
2021/01/06 03:55:10;;;;;;;20.73;9.77;;;-0.20;99.90;;;;;;2074863;28;20173;-66
2021/01/06 03:56:23;;;;;;;20.48;9.00;;;-0.20;99.90;;;;;;2080659;28;20197;-67
2021/01/06 03:57:26;;;;;;;21.33;10.05;;;-0.10;99.90;;;;;;2080118;28;20168;-66
2021/01/06 03:59:01;;;;;;;20.60;9.57;;;-0.10;99.90;;;;;;2064288;28;20178;-67
2021/01/06 04:00:07;;;;;;;15.77;7.93;;;-0.10;99.90;;;;;;2076845;28;20295;-67
2021/01/06 04:01:31;;;;;;;18.42;8.80;;;-0.10;99.90;;;;;;2080038;28;20179;-67
2021/01/06 04:02:41;;;;;;;19.80;9.50;;;-0.10;99.90;;;;;;2080669;28;20239;-66
2021/01/06 04:04:05;;;;;;;18.35;8.90;;;-0.10;99.90;;;;;;2080398;28;20176;-65
2021/01/06 04:05:16;;;;;;;20.00;9.20;;;-0.10;99.90;;;;;;2080536;28;20670;-66
2021/01/06 04:06:19;;;;;;;16.10;8.35;;;-0.20;99.90;;;;;;2080353;28;20172;-67
2021/01/06 04:07:30;;;;;;;20.90;9.23;;;-0.20;99.90;;;;;;2072579;28;20181;-67
2021/01/06 04:08:45;;;;;;;15.75;7.82;;;-0.20;99.90;;;;;;2073407;28;20188;-67
2021/01/06 04:09:57;;;;;;;17.38;9.07;;;-0.10;99.90;;;;;;2074056;28;20197;-67
2021/01/06 04:11:01;;;;;;;14.23;8.38;;;-0.10;99.90;;;;;;2081627;28;20562;-66
2021/01/06 04:12:15;;;;;;;13.93;7.72;;;-0.10;99.90;;;;;;2080317;28;20195;-66
2021/01/06 04:13:15;;;;;;;14.95;8.05;;;-0.10;99.90;;;;;;2074037;28;20581;-67
2021/01/06 04:14:16;;;;;;;15.57;7.57;;;-0.20;99.90;;;;;;2080067;28;20242;-66
2021/01/06 04:15:18;;;;;;;19.17;9.23;;;-0.20;99.90;;;;;;2081010;28;20685;-67
2021/01/06 04:16:19;;;;;;;16.52;8.27;;;-0.20;99.90;;;;;;2080171;28;20638;-67
2021/01/06 04:17:29;;;;;;;15.70;8.35;;;-0.10;99.90;;;;;;2080305;28;20284;-66
2021/01/06 04:18:29;;;;;;;15.02;8.18;;;-0.20;99.90;;;;;;2080299;28;20185;-67
2021/01/06 04:19:30;;;;;;;15.33;8.40;;;-0.10;99.90;;;;;;2080075;28;20227;-66
2021/01/06 04:20:35;;;;;;;12.80;8.10;;;-0.10;99.90;;;;;;2081024;28;20583;-67
2021/01/06 04:21:36;;;;;;;15.93;8.18;;;-0.20;99.90;;;;;;2088539;28;20172;-66
2021/01/06 04:22:52;;;;;;;16.70;8.90;;;-0.20;99.90;;;;;;2088652;28;20222;-67
2021/01/06 04:23:53;;;;;;;16.33;7.90;;;-0.20;99.90;;;;;;2081093;28;20208;-67
2021/01/06 04:24:53;;;;;;;13.30;7.77;;;-0.20;99.90;;;;;;2094934;28;20299;-66
2021/01/06 04:25:54;;;;;;;13.57;7.50;;;-0.20;99.90;;;;;;2098502;28;20202;-65
2021/01/06 04:26:55;;;;;;;13.23;7.10;;;-0.20;99.90;;;;;;2090425;28;20235;-65
2021/01/06 04:28:04;;;;;;;11.30;7.23;;;-0.20;99.90;;;;;;2090640;28;20185;-66
2021/01/06 04:29:05;;;;;;;12.48;7.50;;;-0.20;99.90;;;;;;2090016;28;20248;-67
2021/01/06 04:30:22;;;;;;;12.37;6.87;;;-0.10;99.90;;;;;;2080856;28;20208;-67
2021/01/06 04:31:23;;;;;;;11.32;7.20;;;-0.10;99.90;;;;;;2074603;28;20424;-67
2021/01/06 04:32:32;;;;;;;11.67;7.10;;;-0.10;99.90;;;;;;2072400;28;20178;-67
2021/01/06 04:33:41;;;;;;;13.23;7.82;;;-0.10;99.90;;;;;;2080369;28;20180;-66
2021/01/06 04:34:41;;;;;;;11.93;6.60;;;-0.10;99.90;;;;;;2080302;28;20719;-67
2021/01/06 04:35:42;;;;;;;14.43;7.00;;;-0.10;99.90;;;;;;2082958;28;20191;-66
2021/01/06 04:36:43;;;;;;;12.00;7.23;;;-0.10;99.90;;;;;;2090108;28;20231;-65
2021/01/06 04:37:44;;;;;;;14.20;7.90;;;-0.10;99.90;;;;;;2089826;28;20193;-66
2021/01/06 04:38:52;;;;;;;11.95;7.95;;;-0.10;99.90;;;;;;2097841;28;20177;-65
2021/01/06 04:39:53;;;;;;;12.45;7.63;;;-0.10;99.90;;;;;;2087609;28;20942;-67
2021/01/06 04:41:01;;;;;;;12.17;7.50;;;-0.10;99.90;;;;;;2079922;28;20177;-67
2021/01/06 04:42:06;;;;;;;11.05;6.68;;;-0.10;99.90;;;;;;2081334;28;20185;-67
2021/01/06 04:43:37;;;;;;;14.15;7.70;;;-0.10;99.90;;;;;;2082542;28;20173;-67
2021/01/06 04:45:10;;;;;;;11.15;6.82;;;-0.20;99.90;;;;;;2081870;28;20200;-67
2021/01/06 04:46:31;;;;;;;11.25;6.32;;;-0.20;99.90;;;;;;2077971;28;20177;-67
2021/01/06 04:47:52;;;;;;;12.65;7.30;;;-0.20;99.90;;;;;;2076153;28;20211;-67
2021/01/06 04:49:12;;;;;;;13.88;7.45;;;-0.20;99.90;;;;;;2076296;28;20899;-66
2021/01/06 04:50:37;;;;;;;12.23;6.90;;;-0.20;99.90;;;;;;2081772;28;20211;-67
2021/01/06 04:52:15;;;;;;;13.02;6.75;;;-0.10;99.90;;;;;;2081895;28;20725;-67
2021/01/06 04:53:30;;;;;;;11.73;6.70;;;-0.10;99.90;;;;;;2082300;28;20264;-67
2021/01/06 04:54:59;;;;;;;13.05;7.65;;;-0.10;99.90;;;;;;2082263;28;20164;-67
2021/01/06 04:56:29;;;;;;;13.45;7.80;;;-0.20;99.90;;;;;;2081491;28;20581;-67
2021/01/06 04:57:46;;;;;;;13.95;7.40;;;-0.20;99.90;;;;;;2077481;28;20202;-67
2021/01/06 04:59:19;;;;;;;14.02;7.45;;;-0.10;99.90;;;;;;2075601;28;20173;-68
2021/01/06 05:00:47;;;;;;;15.38;8.43;;;-0.10;99.90;;;;;;2077006;28;20192;-66
2021/01/06 05:02:46;;;;;;;13.52;8.15;;;-0.10;99.90;;;;;;2077053;28;20173;-67
2021/01/06 05:04:13;;;;;;;13.20;7.38;;;-0.10;99.90;;;;;;2080531;28;20228;-67
2021/01/06 05:05:29;;;;;;;16.00;8.05;;;-0.10;99.90;;;;;;2074105;28;20177;-67
2021/01/06 05:07:10;;;;;;;15.90;7.72;;;-0.20;99.90;;;;;;2073866;28;20181;-66
2021/01/06 05:08:36;;;;;;;13.48;7.65;;;-0.10;99.90;;;;;;2073848;28;20284;-67
2021/01/06 05:09:47;;;;;;;13.05;7.50;;;-0.10;99.90;;;;;;2073386;28;20247;-67
2021/01/06 05:11:04;;;;;;;13.88;8.43;;;-0.20;99.90;;;;;;2073298;28;20276;-67
2021/01/06 05:12:12;;;;;;;13.27;7.88;;;-0.20;99.90;;;;;;2073985;28;20184;-67
2021/01/06 05:13:27;;;;;;;15.35;8.30;;;-0.20;99.90;;;;;;2073969;28;20173;-66
2021/01/06 05:14:39;;;;;;;17.33;8.23;;;-0.20;99.90;;;;;;2073177;28;20181;-66
2021/01/06 05:16:07;;;;;;;12.73;7.43;;;-0.10;99.90;;;;;;2066614;28;20222;-67
2021/01/06 05:17:10;;;;;;;13.60;7.75;;;-0.20;99.90;;;;;;2076157;28;20204;-67
2021/01/06 05:18:12;;;;;;;14.88;8.27;;;-0.20;99.90;;;;;;2081443;28;20694;-69
2021/01/06 05:19:19;;;;;;;16.02;9.00;;;-0.20;99.90;;;;;;2087635;23;20254;-62
2021/01/06 05:20:19;;;;;;;13.65;7.90;;;-0.20;99.90;;;;;;2073485;28;20194;-62
2021/01/06 05:21:22;;;;;;;16.00;8.67;;;-0.30;99.90;;;;;;2072879;28;20178;-62
2021/01/06 05:22:23;;;;;;;16.98;9.43;;;-0.20;99.90;;;;;;2081713;28;20218;-63
2021/01/06 05:23:29;;;;;;;14.73;8.73;;;-0.30;99.90;;;;;;2081279;28;20559;-62
2021/01/06 05:24:38;;;;;;;11.80;6.93;;;-0.30;99.90;;;;;;2081250;28;20162;-63
2021/01/06 05:25:38;;;;;;;14.35;7.95;;;-0.30;99.90;;;;;;2081159;28;20577;-62
2021/01/06 05:26:39;;;;;;;13.90;7.70;;;-0.30;99.90;;;;;;2081362;28;20208;-62
2021/01/06 05:27:41;;;;;;;12.13;7.47;;;-0.20;99.90;;;;;;2081202;28;20648;-62
2021/01/06 05:28:44;;;;;;;14.95;8.20;;;-0.20;99.90;;;;;;2081309;28;20666;-62
2021/01/06 05:29:57;;;;;;;15.20;8.63;;;-0.20;99.90;;;;;;2074065;28;20233;-62
2021/01/06 05:30:58;;;;;;;13.23;7.60;;;-0.20;99.90;;;;;;2072716;28;20193;-62
2021/01/06 05:31:59;;;;;;;12.73;8.18;;;-0.30;99.90;;;;;;2073093;28;20193;-62
2021/01/06 05:33:09;;;;;;;14.17;8.53;;;-0.30;99.90;;;;;;2073194;28;20180;-63
2021/01/06 05:34:10;;;;;;;11.55;7.50;;;-0.30;99.90;;;;;;2073185;28;20759;-62
2021/01/06 05:35:18;;;;;;;13.27;7.90;;;-0.30;99.90;;;;;;2073136;28;20186;-62
2021/01/06 05:36:28;;;;;;;12.00;7.82;;;-0.30;99.90;;;;;;2072992;28;20185;-62
2021/01/06 05:37:29;;;;;;;15.77;9.10;;;-0.20;99.90;;;;;;2073360;28;20676;-62
2021/01/06 05:38:30;;;;;;;12.85;7.80;;;-0.20;99.90;;;;;;2073687;28;20185;-62